Time;durP1;ratioP1;P1;durP2;ratioP2;P2;SDS_P1;SDS_P2;PMS_P1;PMS_P2;Temp;Humidity;BMP_temperature;BMP_pressure;BME280_temperature;BME280_humidity;BME280_pressure;Samples;Min_cycle;Max_cycle;Signal;HPM_P1;HPM_P2
2021/09/29 04:33:11;;;;;;;6.83;3.20;;;13.40;99.90;;;;;;4910580;29;20521;-76
2021/09/29 04:35:38;;;;;;;8.80;3.40;;;13.40;99.90;;;;;;4914212;29;20462;-79
2021/09/29 04:38:04;;;;;;;5.10;3.47;;;13.40;99.90;;;;;;4906487;29;20193;-78
2021/09/29 04:40:30;;;;;;;5.87;3.47;;;13.50;99.90;;;;;;4917075;29;20402;-79
2021/09/29 04:42:56;;;;;;;5.30;3.23;;;13.50;99.90;;;;;;4934616;29;20409;-79
2021/09/29 04:45:21;;;;;;;4.80;3.00;;;13.40;99.90;;;;;;4935043;29;20271;-79
2021/09/29 04:47:47;;;;;;;6.77;3.20;;;13.40;99.90;;;;;;4934891;29;20184;-78
2021/09/29 04:50:12;;;;;;;4.47;2.83;;;13.40;99.90;;;;;;4935146;29;20269;-79
2021/09/29 04:52:38;;;;;;;4.00;3.30;;;13.40;99.90;;;;;;4934650;29;20566;-78
2021/09/29 04:55:04;;;;;;;9.50;3.27;;;13.50;99.90;;;;;;4935189;29;20174;-79
2021/09/29 04:57:31;;;;;;;4.63;2.93;;;13.40;99.90;;;;;;4935344;29;20182;-79
2021/09/29 04:59:57;;;;;;;9.97;4.20;;;13.40;99.90;;;;;;4932788;29;20421;-79
2021/09/29 05:02:23;;;;;;;7.30;3.70;;;13.40;99.90;;;;;;4934640;29;20455;-79
2021/09/29 05:04:49;;;;;;;6.83;3.00;;;13.30;99.90;;;;;;4935312;29;20417;-79
2021/09/29 05:07:19;;;;;;;5.47;3.33;;;13.30;99.90;;;;;;4934887;29;20188;-79
2021/09/29 05:09:45;;;;;;;2.70;2.50;;;13.30;99.90;;;;;;4934750;29;20177;-79
2021/09/29 05:12:28;;;;;;;4.03;3.30;;;13.20;99.90;;;;;;4934520;29;20528;-78
2021/09/29 05:14:55;;;;;;;7.07;3.80;;;13.20;99.90;;;;;;4934784;29;20815;-80
2021/09/29 05:17:21;;;;;;;8.00;3.37;;;13.10;99.90;;;;;;4937250;29;20951;-78
2021/09/29 05:19:47;;;;;;;4.17;2.40;;;13.10;99.90;;;;;;4934347;29;20453;-78
2021/09/29 05:22:12;;;;;;;8.93;3.47;;;13.10;99.90;;;;;;4934305;29;20541;-77
2021/09/29 05:24:38;;;;;;;3.70;2.70;;;13.10;99.90;;;;;;4934798;29;20423;-77
2021/09/29 05:27:04;;;;;;;5.37;2.13;;;13.10;99.90;;;;;;4934650;29;20212;-78
2021/09/29 05:29:30;;;;;;;3.40;2.27;;;13.10;99.90;;;;;;4935759;29;20204;-78
2021/09/29 05:31:55;;;;;;;2.63;2.40;;;13.00;99.90;;;;;;4937962;29;20488;-77
2021/09/29 05:34:24;;;;;;;2.70;2.50;;;13.10;99.90;;;;;;4938449;29;20220;-78
2021/09/29 05:36:50;;;;;;;2.53;2.33;;;13.10;99.90;;;;;;4938799;29;20189;-78
2021/09/29 05:39:15;;;;;;;4.47;3.43;;;13.00;99.90;;;;;;4938082;29;20522;-78
2021/09/29 05:41:41;;;;;;;4.30;3.90;;;13.00;99.90;;;;;;4938063;29;20529;-78
2021/09/29 05:44:06;;;;;;;5.93;3.40;;;12.90;99.90;;;;;;4938237;29;20591;-78
2021/09/29 05:46:32;;;;;;;6.47;2.73;;;13.00;99.90;;;;;;4938519;29;20177;-78
2021/09/29 05:48:58;;;;;;;3.57;2.57;;;13.00;99.90;;;;;;4938293;29;20173;-78
2021/09/29 05:51:23;;;;;;;3.43;3.00;;;13.10;99.90;;;;;;4938159;29;20524;-78
2021/09/29 05:53:49;;;;;;;4.77;3.13;;;13.40;99.90;;;;;;4938122;29;20208;-78
2021/09/29 05:56:16;;;;;;;10.40;4.03;;;13.60;99.90;;;;;;4938889;29;20264;-78
2021/09/29 05:58:42;;;;;;;2.90;2.70;;;13.80;99.90;;;;;;4938036;29;20173;-78
2021/09/29 06:01:08;;;;;;;5.17;3.00;;;14.50;99.90;;;;;;4937759;29;20440;-78
2021/09/29 06:03:33;;;;;;;4.07;1.90;;;15.90;99.90;;;;;;4937573;29;20424;-79
2021/09/29 06:05:59;;;;;;;8.73;2.60;;;17.30;99.90;;;;;;4937964;29;20181;-78
2021/09/29 06:08:25;;;;;;;3.03;2.17;;;18.40;99.90;;;;;;4938716;29;20180;-78
2021/09/29 06:10:51;;;;;;;5.83;2.03;;;19.20;99.90;;;;;;4937647;29;20742;-73
2021/09/29 06:13:16;;;;;;;4.03;2.13;;;20.10;99.90;;;;;;4936780;29;20209;-73
2021/09/29 06:15:43;;;;;;;2.87;2.10;;;20.80;99.90;;;;;;4934148;29;20508;-73
2021/09/29 06:18:15;;;;;;;2.23;2.00;;;21.30;99.90;;;;;;4937065;29;20173;-73
2021/09/29 06:20:43;;;;;;;3.87;2.33;;;21.60;99.90;;;;;;4937301;29;20516;-73
2021/09/29 06:23:09;;;;;;;3.93;2.33;;;22.30;99.90;;;;;;4936607;29;20439;-73
2021/09/29 06:25:35;;;;;;;4.43;2.63;;;22.70;99.90;;;;;;4937274;29;20981;-73
2021/09/29 06:28:01;;;;;;;3.97;2.23;;;23.10;99.90;;;;;;4936780;29;20178;-72
2021/09/29 06:30:27;;;;;;;4.60;2.30;;;22.00;99.90;;;;;;4937140;29;20827;-69
2021/09/29 06:32:52;;;;;;;8.43;2.77;;;20.40;99.90;;;;;;4936594;29;20684;-73
2021/09/29 06:35:18;;;;;;;2.70;2.50;;;19.30;99.90;;;;;;4936885;29;20540;-70
2021/09/29 06:37:44;;;;;;;3.90;3.00;;;18.20;99.90;;;;;;4936400;29;20548;-72
2021/09/29 06:40:12;;;;;;;4.53;2.57;;;17.30;99.90;;;;;;4936694;29;20178;-72
2021/09/29 06:42:38;;;;;;;3.20;2.20;;;16.80;99.90;;;;;;4935890;29;20809;-74
2021/09/29 06:45:05;;;;;;;6.30;2.87;;;17.20;99.90;;;;;;4936842;29;20420;-74
2021/09/29 06:47:31;;;;;;;4.80;2.33;;;18.60;99.90;;;;;;4928484;29;20190;-75
2021/09/29 06:49:56;;;;;;;2.73;2.10;;;20.00;99.90;;;;;;4927685;29;20481;-74
2021/09/29 06:52:22;;;;;;;2.93;2.13;;;21.10;99.90;;;;;;4925927;29;20190;-75
2021/09/29 06:54:47;;;;;;;5.83;2.20;;;22.10;99.90;;;;;;4926483;29;20212;-75
2021/09/29 06:57:13;;;;;;;5.70;2.13;;;22.10;99.90;;;;;;4917470;29;20182;-75
2021/09/29 06:59:39;;;;;;;2.37;2.03;;;23.10;99.90;;;;;;4917494;29;20173;-73
2021/09/29 07:02:05;;;;;;;5.30;1.40;;;23.90;99.90;;;;;;4918111;29;20194;-74
2021/09/29 07:04:31;;;;;;;2.83;2.10;;;23.90;99.90;;;;;;4917332;29;20759;-73
2021/09/29 07:06:56;;;;;;;5.80;2.10;;;24.20;99.90;;;;;;4917276;29;20189;-73
2021/09/29 07:09:22;;;;;;;4.87;1.73;;;24.50;99.90;;;;;;4917179;29;20190;-73
2021/09/29 07:11:47;;;;;;;1.67;1.57;;;24.60;99.90;;;;;;4917172;29;20202;-72
2021/09/29 07:14:13;;;;;;;6.37;1.47;;;24.70;99.90;;;;;;4916937;29;20864;-73
2021/09/29 07:16:39;;;;;;;1.93;1.10;;;24.10;99.90;;;;;;4917343;29;20177;-72
2021/09/29 07:19:04;;;;;;;2.53;1.20;;;23.60;99.90;;;;;;4916639;29;20406;-72
2021/09/29 07:21:30;;;;;;;4.80;1.70;;;23.10;99.90;;;;;;4917083;29;20740;-72
2021/09/29 07:23:56;;;;;;;2.30;1.80;;;22.80;99.90;;;;;;4916789;29;20192;-72
2021/09/29 07:26:23;;;;;;;2.93;1.73;;;22.50;99.90;;;;;;4917113;29;20971;-75
2021/09/29 07:28:49;;;;;;;2.53;1.20;;;22.50;99.90;;;;;;4917017;29;20425;-73
2021/09/29 07:31:15;;;;;;;1.53;1.43;;;22.30;99.90;;;;;;4884172;29;21177;-74
2021/09/29 07:33:41;;;;;;;2.10;1.70;;;22.00;99.90;;;;;;4916658;29;20570;-72
2021/09/29 07:36:08;;;;;;;4.20;2.97;;;22.00;99.90;;;;;;4915495;29;20558;-72
2021/09/29 07:38:34;;;;;;;3.07;1.50;;;22.10;99.90;;;;;;4913856;29;20667;-71
2021/09/29 07:40:59;;;;;;;1.30;1.20;;;22.30;99.90;;;;;;4916476;29;20441;-72
2021/09/29 07:43:25;;;;;;;0.90;0.90;;;22.20;99.90;;;;;;4916272;29;20794;-72
2021/09/29 07:45:51;;;;;;;1.60;1.00;;;22.00;99.90;;;;;;4916640;29;20226;-71
2021/09/29 07:48:16;;;;;;;2.30;1.33;;;21.50;99.90;;;;;;4916334;29;20233;-71
2021/09/29 07:50:42;;;;;;;1.30;0.83;;;20.90;99.90;;;;;;4916323;29;20185;-73
2021/09/29 07:53:08;;;;;;;3.50;1.30;;;20.80;99.90;;;;;;4915041;29;20668;-72
2021/09/29 07:55:33;;;;;;;2.63;1.30;;;20.00;99.90;;;;;;4915258;29;20196;-72
2021/09/29 07:57:59;;;;;;;2.27;1.00;;;19.80;99.90;;;;;;4916165;29;20185;-72
2021/09/29 08:00:24;;;;;;;2.80;1.40;;;20.10;99.90;;;;;;4916437;29;20261;-74
2021/09/29 08:02:52;;;;;;;1.63;1.30;;;20.60;99.90;;;;;;4899103;29;20646;-72
2021/09/29 08:05:19;;;;;;;2.67;1.00;;;21.00;99.90;;;;;;4916133;29;20170;-72
2021/09/29 08:07:45;;;;;;;2.63;1.50;;;21.30;99.90;;;;;;4916139;29;20415;-72
2021/09/29 08:10:11;;;;;;;1.20;1.10;;;21.70;99.90;;;;;;4915925;29;20418;-73
2021/09/29 08:12:37;;;;;;;6.53;1.40;;;21.80;99.90;;;;;;4915726;29;20504;-72
2021/09/29 08:15:11;;;;;;;3.10;1.47;;;22.00;99.90;;;;;;4916084;29;20655;-72
2021/09/29 08:17:37;;;;;;;2.53;1.37;;;22.10;99.90;;;;;;4916153;29;20417;-72
2021/09/29 08:20:03;;;;;;;1.47;0.83;;;22.30;99.90;;;;;;4915784;29;20406;-72
2021/09/29 08:22:29;;;;;;;1.40;0.80;;;22.70;99.90;;;;;;4913338;29;20210;-71
2021/09/29 08:27:52;;;;;;;1.87;0.90;;;22.70;99.90;;;;;;4915919;29;20186;-71
2021/09/29 08:30:16;;;;;;;2.03;1.27;;;22.40;99.90;;;;;;4915410;29;20635;-72
2021/09/29 08:32:56;;;;;;;2.90;0.80;;;22.50;99.90;;;;;;4915514;29;20461;-72
2021/09/29 08:37:59;;;;;;;1.33;0.70;;;22.80;99.90;;;;;;4934450;29;20780;-72
2021/09/29 08:40:37;;;;;;;5.93;1.40;;;23.10;99.90;;;;;;4913332;29;20182;-73
2021/09/29 08:46:17;;;;;;;2.73;1.20;;;23.10;99.90;;;;;;4894505;29;20562;-75
2021/09/29 08:49:03;;;;;;;2.87;1.10;;;22.90;99.90;;;;;;4894446;29;20472;-73
2021/09/29 08:51:56;;;;;;;4.90;1.30;;;22.70;99.90;;;;;;4910064;29;20516;-74
2021/09/29 09:16:33;;;;;;;2.67;0.90;;;23.30;99.90;;;;;;4915101;29;20831;-76
2021/09/29 09:19:03;;;;;;;1.30;1.00;;;23.70;99.90;;;;;;4915113;29;20417;-76
2021/09/29 09:21:30;;;;;;;1.83;1.10;;;23.70;99.90;;;;;;4915087;29;20461;-75
2021/09/29 09:23:56;;;;;;;3.77;0.80;;;23.60;99.90;;;;;;4914811;29;20426;-77
2021/09/29 09:26:24;;;;;;;1.43;1.10;;;23.70;99.90;;;;;;4915043;29;20421;-78
2021/09/29 09:29:01;;;;;;;1.17;1.00;;;23.70;99.90;;;;;;4914974;29;20496;-76
2021/09/29 09:31:27;;;;;;;6.53;0.90;;;24.00;99.90;;;;;;4914837;29;20465;-75
2021/09/29 09:33:55;;;;;;;1.47;0.70;;;24.20;99.90;;;;;;4913306;29;20596;-76
2021/09/29 09:36:41;;;;;;;5.57;0.80;;;24.50;99.90;;;;;;4914863;29;20185;-75
2021/09/29 09:39:14;;;;;;;2.60;0.87;;;24.30;99.90;;;;;;4914698;29;20537;-76
2021/09/29 09:42:10;;;;;;;1.83;0.67;;;23.60;99.90;;;;;;4914894;29;20946;-76
2021/09/29 09:44:38;;;;;;;1.03;0.70;;;22.90;99.90;;;;;;4914149;29;20879;-76
2021/09/29 09:47:16;;;;;;;1.23;0.70;;;22.40;99.90;;;;;;4914772;29;20418;-75
2021/09/29 09:49:47;;;;;;;2.80;0.80;;;22.30;99.90;;;;;;4914817;29;20449;-76
2021/09/29 09:52:25;;;;;;;3.43;1.17;;;22.20;99.90;;;;;;4914345;29;20450;-76
2021/09/29 09:54:51;;;;;;;2.70;1.00;;;21.90;99.90;;;;;;4914682;29;21030;-75
2021/09/29 09:57:21;;;;;;;1.03;0.70;;;21.60;99.90;;;;;;4914747;29;20422;-76
2021/09/29 09:59:51;;;;;;;6.43;1.07;;;21.20;99.90;;;;;;4914739;29;20269;-76
2021/09/29 10:02:18;;;;;;;3.10;0.80;;;20.90;99.90;;;;;;4914454;29;20922;-76
2021/09/29 10:04:44;;;;;;;4.60;0.80;;;20.50;99.90;;;;;;4913542;29;20932;-76
2021/09/29 10:07:11;;;;;;;4.17;0.60;;;21.00;99.90;;;;;;4914487;29;20430;-76
2021/09/29 10:09:47;;;;;;;4.73;0.83;;;21.60;99.90;;;;;;4914702;29;20414;-76
2021/09/29 10:23:13;;;;;;;1.47;0.70;;;23.40;99.90;;;;;;4923255;29;20817;-76
2021/09/29 10:28:41;;;;;;;1.20;1.10;;;24.60;99.90;;;;;;4936965;29;20507;-77
2021/09/29 10:31:28;;;;;;;1.37;0.50;;;25.20;99.90;;;;;;4936711;29;20456;-77
2021/09/29 10:33:59;;;;;;;5.30;0.70;;;25.20;99.90;;;;;;4936661;29;20551;-77
2021/09/29 10:36:44;;;;;;;6.33;0.80;;;24.20;99.90;;;;;;4936861;29;20424;-76
2021/09/29 10:44:27;;;;;;;4.20;1.20;;;21.90;99.90;;;;;;4934859;29;20429;-75
2021/09/29 10:46:59;;;;;;;2.67;1.33;;;21.40;99.90;;;;;;4937033;29;20480;-77
2021/09/29 10:52:23;;;;;;;3.07;0.67;;;20.70;99.90;;;;;;4936121;29;20441;-75
2021/09/29 11:08:44;;;;;;;6.60;0.83;;;19.90;99.90;;;;;;4915697;29;20784;-77
2021/09/29 11:28:39;;;;;;;1.23;0.40;;;22.50;99.90;;;;;;4916566;29;20430;-76
2021/09/29 11:31:14;;;;;;;3.33;0.70;;;21.90;99.90;;;;;;4916753;29;20991;-75
2021/09/29 11:33:54;;;;;;;1.37;0.60;;;21.60;99.90;;;;;;4916704;29;20465;-77
2021/09/29 12:12:22;;;;;;;1.73;0.80;;;20.70;99.90;;;;;;4915947;29;20962;-76
2021/09/29 12:14:55;;;;;;;2.07;0.50;;;20.80;99.90;;;;;;4916365;29;20468;-76
2021/09/29 12:17:21;;;;;;;3.43;0.57;;;21.10;99.90;;;;;;4916221;29;20433;-76
2021/09/29 12:19:53;;;;;;;1.90;0.50;;;21.40;99.90;;;;;;4917857;29;20936;-76
2021/09/29 12:22:20;;;;;;;1.83;0.80;;;21.70;99.90;;;;;;4916270;29;20189;-77
2021/09/29 12:24:49;;;;;;;1.67;0.60;;;21.70;99.90;;;;;;4915930;29;20417;-76
2021/09/29 12:30:17;;;;;;;1.63;0.50;;;21.60;99.90;;;;;;4915866;29;20458;-77
2021/09/29 12:33:03;;;;;;;1.13;0.70;;;21.60;99.90;;;;;;4915557;29;20469;-76
2021/09/29 12:38:05;;;;;;;3.70;0.90;;;21.20;99.90;;;;;;4915845;29;20500;-76
2021/09/29 12:40:34;;;;;;;0.67;0.60;;;21.20;99.90;;;;;;4914977;29;20509;-74
2021/09/29 12:43:02;;;;;;;3.37;0.80;;;21.30;99.90;;;;;;4915535;29;20414;-77
2021/09/29 12:45:34;;;;;;;2.13;0.50;;;21.10;99.90;;;;;;4915778;29;20421;-76
2021/09/29 12:48:05;;;;;;;1.70;0.43;;;20.90;99.90;;;;;;4915601;29;20413;-76
2021/09/29 12:56:02;;;;;;;0.57;0.50;;;20.70;99.90;;;;;;4915727;29;20787;-77
2021/09/29 12:58:27;;;;;;;2.93;0.70;;;20.80;99.90;;;;;;4915687;29;20418;-76
2021/09/29 13:00:54;;;;;;;1.67;0.70;;;20.60;99.90;;;;;;4915317;29;20441;-76
2021/09/29 13:03:19;;;;;;;1.80;0.80;;;20.70;99.90;;;;;;4933732;29;20200;-75
2021/09/29 13:05:46;;;;;;;2.20;0.60;;;20.70;99.90;;;;;;4934408;29;20919;-76
2021/09/29 13:08:12;;;;;;;1.17;0.57;;;20.80;99.90;;;;;;4934276;29;20272;-76
2021/09/29 13:10:38;;;;;;;2.77;0.70;;;20.60;99.90;;;;;;4934431;29;20517;-76
2021/09/29 13:13:04;;;;;;;5.23;0.50;;;20.30;99.90;;;;;;4930817;29;20264;-75
2021/09/29 13:15:30;;;;;;;5.17;0.80;;;20.20;99.90;;;;;;4934135;29;20602;-76
2021/09/29 13:17:58;;;;;;;2.57;0.70;;;20.10;99.90;;;;;;4934246;29;20965;-76
2021/09/29 13:20:29;;;;;;;2.30;1.37;;;20.10;99.90;;;;;;4934516;29;20476;-76
2021/09/29 13:22:58;;;;;;;4.33;0.90;;;20.10;99.90;;;;;;4933379;29;20444;-76
2021/09/29 13:39:14;;;;;;;1.27;0.60;;;19.60;99.90;;;;;;4915216;29;20850;-75
2021/09/29 13:41:41;;;;;;;4.30;0.60;;;19.40;99.90;;;;;;4914832;29;20441;-76
2021/09/29 13:44:08;;;;;;;2.93;0.97;;;19.20;99.90;;;;;;4914427;29;20510;-76
2021/09/29 13:46:33;;;;;;;4.13;1.03;;;18.70;99.90;;;;;;4915307;29;20465;-76
2021/09/29 13:49:01;;;;;;;0.60;0.60;;;18.10;99.90;;;;;;4914877;29;20461;-76
2021/09/29 13:51:27;;;;;;;1.80;0.70;;;17.70;99.90;;;;;;4917917;29;20202;-76
2021/09/29 13:53:55;;;;;;;1.73;0.90;;;17.50;99.90;;;;;;4918314;29;20942;-75
2021/09/29 13:56:24;;;;;;;4.63;0.70;;;17.40;99.90;;;;;;4918718;29;20433;-76
2021/09/29 13:59:07;;;;;;;2.43;0.70;;;17.30;99.90;;;;;;4918740;29;20426;-77
2021/09/29 14:29:04;;;;;;;2.93;0.40;;;16.20;99.90;;;;;;4918498;29;20414;-76
2021/09/29 14:32:02;;;;;;;0.63;0.40;;;16.00;99.90;;;;;;4917999;29;20467;-76
2021/09/29 14:34:28;;;;;;;1.30;0.47;;;15.80;99.90;;;;;;4917785;29;20468;-74
2021/09/29 14:36:53;;;;;;;2.67;0.50;;;15.50;99.90;;;;;;4918053;29;20418;-75
2021/09/29 14:39:19;;;;;;;0.50;0.40;;;15.30;99.90;;;;;;4917884;29;20514;-77
2021/09/29 14:41:45;;;;;;;0.50;0.50;;;15.20;99.90;;;;;;4917909;29;20261;-77
2021/09/29 14:44:11;;;;;;;1.67;0.50;;;15.10;99.90;;;;;;4916290;29;20269;-77
2021/09/29 14:46:37;;;;;;;1.87;0.60;;;14.90;99.90;;;;;;4923821;29;20193;-76
2021/09/29 14:49:03;;;;;;;1.50;0.50;;;14.80;99.90;;;;;;4932497;29;20430;-76
2021/09/29 14:51:29;;;;;;;1.03;0.50;;;14.80;99.90;;;;;;4936521;29;20193;-76
2021/09/29 14:53:57;;;;;;;0.50;0.40;;;14.60;99.90;;;;;;4936496;29;20544;-76
2021/09/29 14:56:23;;;;;;;0.67;0.60;;;14.50;99.90;;;;;;4936483;29;20173;-76
2021/09/29 14:58:49;;;;;;;1.40;1.30;;;14.50;99.90;;;;;;4936524;29;20464;-76
2021/09/29 15:01:15;;;;;;;0.57;0.50;;;14.40;99.90;;;;;;4936249;29;20201;-76
2021/09/29 15:03:41;;;;;;;0.97;0.50;;;14.40;99.90;;;;;;4935813;29;20201;-76
2021/09/29 15:06:08;;;;;;;1.40;0.40;;;14.40;99.90;;;;;;4936277;29;20508;-76
2021/09/29 15:08:36;;;;;;;2.70;0.60;;;14.40;99.90;;;;;;4936513;29;20422;-75
2021/09/29 15:11:03;;;;;;;2.43;0.60;;;14.40;99.90;;;;;;4936141;29;20472;-76
2021/09/29 15:13:33;;;;;;;0.60;0.60;;;14.50;99.90;;;;;;4936126;29;20452;-76
2021/09/29 15:16:03;;;;;;;1.23;0.50;;;14.40;99.90;;;;;;4936147;29;20900;-77
2021/09/29 15:18:32;;;;;;;1.23;0.50;;;14.50;99.90;;;;;;4936243;29;20452;-76
2021/09/29 15:21:26;;;;;;;1.77;0.70;;;14.50;99.90;;;;;;4935377;29;20430;-76
2021/09/29 15:24:03;;;;;;;0.60;0.40;;;14.50;99.90;;;;;;4935696;29;20428;-76
2021/09/29 15:27:06;;;;;;;0.70;0.50;;;14.50;99.90;;;;;;4936483;29;20453;-77
2021/09/29 15:32:35;;;;;;;0.57;0.57;;;14.30;99.90;;;;;;4936191;29;20551;-75
2021/09/29 15:46:46;;;;;;;4.53;0.70;;;14.10;99.90;;;;;;4935764;29;20424;-77
2021/09/29 15:52:05;;;;;;;2.40;0.43;;;14.10;99.90;;;;;;4935714;29;20436;-78
2021/09/29 15:54:42;;;;;;;1.33;0.53;;;14.10;99.90;;;;;;4934209;29;20469;-76
2021/09/29 15:57:19;;;;;;;0.83;0.60;;;14.10;99.90;;;;;;4935457;29;20439;-77
2021/09/29 16:02:46;;;;;;;0.73;0.50;;;14.10;99.90;;;;;;4935446;29;20432;-76
2021/09/29 16:05:28;;;;;;;0.80;0.50;;;14.10;99.90;;;;;;4935171;29;20413;-76
2021/09/29 16:15:57;;;;;;;0.60;0.53;;;14.20;99.90;;;;;;4934715;29;20401;-76
2021/09/29 16:18:40;;;;;;;1.40;0.57;;;14.10;99.90;;;;;;4934917;29;20429;-77
2021/09/29 16:21:42;;;;;;;0.80;0.50;;;14.00;99.90;;;;;;4934742;29;20459;-76
2021/09/29 16:35:00;;;;;;;1.17;0.53;;;14.00;99.90;;;;;;4934978;29;20463;-77
2021/09/29 16:37:27;;;;;;;1.73;0.50;;;13.90;99.90;;;;;;4935054;29;20425;-76
2021/09/29 16:39:53;;;;;;;0.90;0.60;;;13.80;99.90;;;;;;4934697;29;20413;-78
2021/09/29 16:42:18;;;;;;;3.03;0.57;;;13.80;99.90;;;;;;4931544;29;20434;-77
2021/09/29 16:44:44;;;;;;;0.73;0.53;;;13.80;99.90;;;;;;4915831;29;20193;-77
2021/09/29 16:47:10;;;;;;;2.20;0.50;;;13.70;99.90;;;;;;4915519;29;20670;-77
2021/09/29 16:49:37;;;;;;;1.57;0.60;;;13.80;99.90;;;;;;4915685;29;20422;-76
2021/09/29 16:52:10;;;;;;;4.87;0.53;;;13.80;99.90;;;;;;4915303;29;20241;-77
2021/09/29 16:54:35;;;;;;;0.50;0.50;;;13.80;99.90;;;;;;4915528;29;20503;-76
2021/09/29 16:57:07;;;;;;;2.40;0.60;;;13.80;99.90;;;;;;4915490;29;20449;-77
2021/09/29 16:59:45;;;;;;;0.50;0.50;;;13.70;99.90;;;;;;4915552;29;20170;-76
2021/09/29 17:02:13;;;;;;;0.60;0.50;;;13.70;99.90;;;;;;4915066;29;20446;-76
2021/09/29 17:04:39;;;;;;;4.37;0.70;;;13.70;99.90;;;;;;4914172;29;21006;-78
2021/09/29 17:07:05;;;;;;;4.03;0.50;;;13.70;99.90;;;;;;4915218;29;20426;-76
2021/09/29 17:09:32;;;;;;;1.23;0.50;;;13.70;99.90;;;;;;4915295;29;20181;-77
2021/09/29 17:11:58;;;;;;;0.50;0.50;;;13.70;99.90;;;;;;4915199;29;20194;-78
2021/09/29 17:14:23;;;;;;;1.83;0.50;;;13.70;99.90;;;;;;4915047;29;20485;-77
2021/09/29 17:16:49;;;;;;;1.30;0.50;;;13.60;99.90;;;;;;4915324;29;20290;-76
2021/09/29 17:19:14;;;;;;;0.50;0.40;;;13.60;99.90;;;;;;4914988;29;20182;-76
2021/09/29 17:21:40;;;;;;;3.60;0.60;;;13.60;99.90;;;;;;4915308;29;20237;-79
2021/09/29 17:24:06;;;;;;;3.07;0.60;;;13.50;99.90;;;;;;4914946;29;20859;-76
2021/09/29 17:26:32;;;;;;;0.67;0.60;;;13.60;99.90;;;;;;4915161;29;20566;-76
2021/09/29 17:28:59;;;;;;;1.13;0.50;;;13.50;99.90;;;;;;4914996;29;20421;-77
2021/09/29 17:31:32;;;;;;;2.43;0.50;;;13.50;99.90;;;;;;4914980;29;20604;-79
2021/09/29 17:34:48;;;;;;;0.87;0.60;;;13.50;99.90;;;;;;4914816;29;20457;-78
2021/09/29 17:37:04;;;;;;;2.07;0.47;;;13.40;99.90;;;;;;4912960;29;20437;-79
2021/09/29 17:39:55;;;;;;;2.73;0.87;;;13.50;99.90;;;;;;4915385;29;20422;-79
2021/09/29 17:53:17;;;;;;;1.53;0.63;;;13.40;99.90;;;;;;4913820;29;20417;-77
2021/09/29 17:55:44;;;;;;;3.70;0.50;;;13.40;99.90;;;;;;4924747;29;20438;-78
2021/09/29 17:58:10;;;;;;;0.80;0.50;;;13.40;99.90;;;;;;4914904;29;20206;-78
2021/09/29 18:00:38;;;;;;;0.70;0.50;;;13.40;99.90;;;;;;4914931;29;20461;-78
2021/09/29 18:07:58;;;;;;;0.70;0.60;;;13.20;99.90;;;;;;4914772;29;20426;-78
2021/09/29 18:10:26;;;;;;;2.80;0.60;;;13.20;99.90;;;;;;4914764;29;20470;-77
2021/09/29 18:12:52;;;;;;;1.03;0.70;;;13.20;99.90;;;;;;4914727;29;21023;-78
2021/09/29 18:15:18;;;;;;;3.40;0.67;;;13.20;99.90;;;;;;4914664;29;20565;-78
2021/09/29 18:17:43;;;;;;;0.60;0.60;;;13.20;99.90;;;;;;4914867;29;20258;-78
2021/09/29 18:20:10;;;;;;;0.87;0.50;;;13.20;99.90;;;;;;4914464;29;20849;-77
2021/09/29 18:22:37;;;;;;;2.20;0.60;;;13.20;99.90;;;;;;4914667;29;20198;-78
2021/09/29 18:25:04;;;;;;;1.53;0.40;;;13.10;99.90;;;;;;4914448;29;20427;-78
2021/09/29 18:27:30;;;;;;;1.43;0.70;;;13.10;99.90;;;;;;4915132;29;20429;-77
2021/09/29 18:29:57;;;;;;;1.20;0.70;;;13.10;99.90;;;;;;4914789;29;20418;-78
2021/09/29 18:32:24;;;;;;;1.73;1.63;;;13.10;99.90;;;;;;4914585;29;20256;-78
2021/09/29 18:34:49;;;;;;;2.40;0.60;;;13.20;99.90;;;;;;4914614;29;20510;-78
2021/09/29 18:37:15;;;;;;;1.17;0.53;;;13.20;99.90;;;;;;4915390;29;20841;-79
2021/09/29 18:39:43;;;;;;;1.03;0.60;;;13.20;99.90;;;;;;4918182;29;20225;-79
2021/09/29 18:42:09;;;;;;;1.37;0.80;;;13.20;99.90;;;;;;4917832;29;20442;-79
2021/09/29 18:44:39;;;;;;;2.10;0.80;;;13.10;99.90;;;;;;4918271;29;20422;-79
2021/09/29 18:47:07;;;;;;;0.70;0.70;;;13.00;99.90;;;;;;4918179;29;20426;-79
2021/09/29 18:49:33;;;;;;;2.33;0.70;;;12.80;99.90;;;;;;4916962;29;20469;-78
2021/09/29 18:51:58;;;;;;;0.60;0.60;;;12.70;99.90;;;;;;4917805;29;20481;-79
2021/09/29 18:54:28;;;;;;;1.53;0.87;;;12.50;99.90;;;;;;4917603;29;20213;-79
2021/09/29 19:07:38;;;;;;;1.67;0.60;;;11.90;99.90;;;;;;4933713;29;20431;-78
2021/09/29 19:10:05;;;;;;;2.03;0.80;;;11.90;99.90;;;;;;4935029;29;20429;-78
2021/09/29 19:12:31;;;;;;;1.00;0.67;;;11.80;99.90;;;;;;4936187;29;20437;-80
2021/09/29 19:14:57;;;;;;;1.70;0.70;;;11.70;99.90;;;;;;4936200;29;20468;-79
2021/09/29 19:17:24;;;;;;;0.60;0.50;;;11.60;99.90;;;;;;4936248;29;20428;-79
2021/09/29 19:19:49;;;;;;;0.77;0.60;;;11.60;99.90;;;;;;4936066;29;20191;-78
2021/09/29 19:22:15;;;;;;;1.73;0.80;;;11.60;99.90;;;;;;4935835;29;21020;-78
2021/09/29 19:24:40;;;;;;;2.00;0.60;;;11.50;99.90;;;;;;4936410;29;20249;-78
2021/09/29 19:27:06;;;;;;;0.73;0.73;;;11.40;99.90;;;;;;4936054;29;20171;-78
2021/09/29 19:29:31;;;;;;;2.60;0.70;;;11.30;99.90;;;;;;4934669;29;20185;-78
2021/09/29 19:31:57;;;;;;;1.77;0.70;;;11.20;99.90;;;;;;4935635;29;20211;-80
2021/09/29 19:34:27;;;;;;;1.23;0.60;;;11.20;99.90;;;;;;4935816;29;20218;-79
2021/09/29 19:36:53;;;;;;;1.53;0.60;;;11.10;99.90;;;;;;4935767;29;20226;-79
2021/09/29 19:39:19;;;;;;;2.07;0.90;;;11.10;99.90;;;;;;4935205;29;20529;-78
2021/09/29 19:41:45;;;;;;;0.87;0.80;;;11.00;99.90;;;;;;4935896;29;20998;-79
2021/09/29 19:44:15;;;;;;;1.13;0.70;;;10.90;99.90;;;;;;4935726;29;20267;-79
2021/09/29 20:08:00;;;;;;;0.80;0.70;;;11.00;99.90;;;;;;4935876;29;20510;-79
2021/09/29 20:10:25;;;;;;;0.90;0.73;;;11.00;99.90;;;;;;4935521;29;20506;-78
2021/09/29 20:12:51;;;;;;;2.87;0.97;;;11.10;99.90;;;;;;4935822;29;20200;-78
2021/09/29 20:15:19;;;;;;;0.80;0.63;;;11.10;99.90;;;;;;4935363;29;20210;-79
2021/09/29 20:17:46;;;;;;;1.40;0.80;;;11.10;99.90;;;;;;4924288;29;20211;-79
2021/09/29 20:20:16;;;;;;;1.10;0.70;;;11.10;99.90;;;;;;4918073;29;20456;-78
2021/09/29 20:22:44;;;;;;;2.20;1.17;;;11.20;99.90;;;;;;4926769;29;20471;-79
2021/09/29 20:25:11;;;;;;;5.03;0.67;;;11.20;99.90;;;;;;4934733;29;20421;-78
2021/09/29 20:27:38;;;;;;;1.20;1.00;;;11.30;99.90;;;;;;4935378;29;20467;-78
2021/09/29 20:30:05;;;;;;;2.03;0.60;;;11.30;99.90;;;;;;4935007;29;20460;-78
2021/09/29 20:32:31;;;;;;;0.60;0.50;;;11.30;99.90;;;;;;4934943;29;20462;-78
2021/09/29 20:43:10;;;;;;;3.17;0.60;;;11.20;99.90;;;;;;4934922;29;21031;-78
2021/09/29 20:45:41;;;;;;;1.90;0.70;;;11.20;99.90;;;;;;4935065;29;20412;-79
2021/09/29 20:48:08;;;;;;;1.73;0.60;;;11.10;99.90;;;;;;4933659;29;20671;-78
2021/09/29 20:50:35;;;;;;;2.60;0.60;;;11.10;99.90;;;;;;4933540;29;20504;-76
2021/09/29 20:53:00;;;;;;;1.70;0.97;;;11.00;99.90;;;;;;4924645;29;20796;-78
2021/09/29 20:55:27;;;;;;;1.20;0.70;;;11.00;99.90;;;;;;4931613;29;20467;-76
2021/09/29 20:57:55;;;;;;;1.47;0.80;;;10.90;99.90;;;;;;4934972;29;20608;-77
2021/09/29 21:00:22;;;;;;;0.50;0.50;;;10.90;99.90;;;;;;4934081;29;20780;-77
2021/09/29 21:02:47;;;;;;;2.30;0.60;;;10.90;99.90;;;;;;4934547;29;20527;-78
2021/09/29 21:05:14;;;;;;;3.00;0.70;;;10.90;99.90;;;;;;4934174;29;20802;-77
2021/09/29 21:07:43;;;;;;;1.13;0.60;;;10.90;99.90;;;;;;4934461;29;20438;-77
2021/09/29 21:10:11;;;;;;;3.73;0.80;;;10.90;99.90;;;;;;4934218;29;20831;-78
2021/09/29 21:12:48;;;;;;;4.97;0.70;;;10.90;99.90;;;;;;4934161;29;20962;-78
2021/09/29 21:17:58;;;;;;;1.90;0.90;;;10.90;99.90;;;;;;4934434;29;20416;-77
2021/09/29 21:20:25;;;;;;;2.97;0.70;;;10.80;99.90;;;;;;4934101;29;20416;-78
2021/09/29 21:22:52;;;;;;;3.50;0.73;;;10.80;99.90;;;;;;4934312;29;20440;-78
2021/09/29 21:25:17;;;;;;;4.80;1.00;;;10.70;99.90;;;;;;4934044;29;20880;-78
2021/09/29 21:27:43;;;;;;;3.33;0.80;;;10.60;99.90;;;;;;4934327;29;20460;-77
2021/09/29 21:30:11;;;;;;;1.17;0.60;;;10.60;99.90;;;;;;4934103;29;20216;-78
2021/09/29 21:32:37;;;;;;;1.53;0.60;;;10.60;99.90;;;;;;4932560;29;20587;-78
2021/09/29 21:35:08;;;;;;;3.47;0.70;;;10.50;99.90;;;;;;4933523;29;20516;-77
2021/09/29 21:43:14;;;;;;;1.97;1.10;;;10.40;99.90;;;;;;4934111;29;20440;-76
2021/09/29 22:04:35;;;;;;;0.90;0.80;;;10.10;99.90;;;;;;4928691;29;20421;-78
2021/09/29 22:15:17;;;;;;;4.50;1.00;;;10.10;99.90;;;;;;4937572;29;20470;-77
2021/09/29 22:18:38;;;;;;;1.00;0.60;;;10.20;99.90;;;;;;4937884;29;20432;-77
2021/09/29 22:42:11;;;;;;;0.80;0.70;;;10.70;99.90;;;;;;4937318;29;20429;-78
2021/09/29 22:56:17;;;;;;;1.80;0.77;;;10.60;99.90;;;;;;4937036;29;20520;-76
2021/09/29 22:59:38;;;;;;;2.00;0.80;;;10.60;99.90;;;;;;4936996;29;20424;-78
2021/09/29 23:22:46;;;;;;;2.63;0.70;;;10.10;99.90;;;;;;4936275;29;20437;-78
2021/09/29 23:33:25;;;;;;;1.67;0.60;;;10.00;99.90;;;;;;4936375;29;20432;-77